Terminal Aerodrome Forecast
Issued by NWS Huntsville, AL

Home | Current Version | Previous Version | Text Only | Print | Product List | Glossary On
Versions: 1 2 3 4 5 6 7 8 9 10 11 12 13 14 15 16 17 18 19 20 21 22 23 24 25 26 27
000
FTUS44 KHUN 282352 CCA
TAFMSL
TAF COR
KMSL 282352Z 2900/2924 12007KT P6SM FEW035 SCT060 SCT250
     FM290900 14005KT P6SM VCSH BKN035 BKN050 OVC250
     FM291400 16009KT P6SM VCTS SCT025CB BKN040 OVC180=

USA.gov is the U.S. government's official web portal to all federal, state and local government web resources and services.